createdAt,value
2023-02-14T00:01:08.369Z,95901.91
2023-02-14T00:03:35.030Z,95915.13
2023-02-14T00:06:09.178Z,95910.56
2023-02-14T00:08:36.751Z,95907.47
2023-02-14T00:11:05.404Z,95910.22
2023-02-14T00:13:32.078Z,95915.56
2023-02-14T00:15:59.141Z,95913.91
2023-02-14T00:18:45.891Z,95903.09
2023-02-14T00:21:12.644Z,95890.84
2023-02-14T00:23:39.330Z,95902.47
2023-02-14T00:26:06.039Z,95898.63
2023-02-14T00:28:32.740Z,95889.16
2023-02-14T00:31:01.965Z,95908.00
2023-02-14T00:33:28.847Z,95915.53
2023-02-14T00:35:55.412Z,95898.91
2023-02-14T00:38:22.046Z,95901.41
2023-02-14T00:40:48.676Z,95903.13
2023-02-14T00:43:15.264Z,95901.06
2023-02-14T00:45:41.946Z,95908.38
2023-02-14T00:48:08.583Z,95903.56
2023-02-14T00:50:35.376Z,95902.47
2023-02-14T00:53:02.009Z,95902.19
2023-02-14T00:55:28.639Z,95910.00
2023-02-14T00:57:55.297Z,95909.78
2023-02-14T01:00:22.252Z,95910.78
2023-02-14T01:02:49.087Z,95909.56
2023-02-14T01:05:15.808Z,95905.00
2023-02-14T01:07:42.463Z,95899.91
2023-02-14T01:10:09.403Z,95904.28
2023-02-14T01:12:36.066Z,95898.66
2023-02-14T01:15:02.626Z,95911.19
2023-02-14T01:17:29.262Z,95906.28
2023-02-14T01:19:55.957Z,95911.25
2023-02-14T01:22:22.590Z,95910.16
2023-02-14T01:24:49.297Z,95906.59
2023-02-14T01:27:15.940Z,95913.22
2023-02-14T01:29:42.615Z,95910.75
2023-02-14T01:32:09.322Z,95910.66
2023-02-14T01:34:36.043Z,95911.03
2023-02-14T01:37:02.805Z,95909.84
2023-02-14T01:39:29.407Z,95908.22
2023-02-14T01:41:56.741Z,95904.03
2023-02-14T01:44:26.159Z,95908.16
2023-02-14T01:46:52.945Z,95895.22
2023-02-14T01:49:28.627Z,95883.84
2023-02-14T01:52:09.893Z,95896.59
2023-02-14T01:54:39.309Z,95896.28
2023-02-14T01:57:09.242Z,95895.59
2023-02-14T01:59:40.619Z,95901.31
2023-02-14T02:02:07.799Z,95894.69
2023-02-14T02:04:41.444Z,95896.41
2023-02-14T02:07:11.005Z,95892.03
2023-02-14T02:09:57.506Z,95894.59
2023-02-14T02:12:24.452Z,95889.78
2023-02-14T02:14:53.459Z,95885.53
2023-02-14T02:17:25.474Z,95890.91
2023-02-14T02:20:13.959Z,95890.66
2023-02-14T02:22:59.582Z,95893.06
2023-02-14T02:25:35.124Z,95901.16
2023-02-14T02:28:26.603Z,95897.47
2023-02-14T02:31:22.324Z,95903.84
2023-02-14T02:34:18.212Z,95900.66
2023-02-14T02:37:03.505Z,95887.78
2023-02-14T02:40:11.479Z,95886.59
2023-02-14T02:43:04.722Z,95888.84
2023-02-14T02:46:00.843Z,95882.34
2023-02-14T02:48:38.106Z,95878.88
2023-02-14T02:51:26.321Z,95878.69
2023-02-14T02:54:03.246Z,95865.38
2023-02-14T02:56:46.465Z,95873.28
2023-02-14T02:59:20.628Z,95866.38
2023-02-14T03:01:52.910Z,95865.84
2023-02-14T03:04:39.772Z,95863.13
2023-02-14T03:07:27.887Z,95866.56
2023-02-14T03:09:57.710Z,95871.00
2023-02-14T03:12:33.277Z,95870.53
2023-02-14T03:15:18.140Z,95881.41
2023-02-14T03:18:17.376Z,95873.63
2023-02-14T03:20:52.019Z,95881.50
2023-02-14T03:23:25.450Z,95869.41
2023-02-14T03:26:02.729Z,95880.84
2023-02-14T03:28:48.538Z,95886.69
2023-02-14T03:31:26.872Z,95886.69
2023-02-14T03:34:12.518Z,95884.31
2023-02-14T03:36:57.204Z,95890.38
2023-02-14T03:39:42.442Z,95890.13
2023-02-14T03:42:16.554Z,95888.94
2023-02-14T03:44:44.504Z,95891.19
2023-02-14T03:47:14.024Z,95887.03
2023-02-14T03:50:12.401Z,95885.56
2023-02-14T03:52:39.440Z,95887.84
2023-02-14T03:55:07.732Z,95886.63
2023-02-14T03:57:48.078Z,95881.38
2023-02-14T04:00:16.132Z,95884.13
2023-02-14T04:02:48.457Z,95884.31
2023-02-14T04:05:22.272Z,95884.16
2023-02-14T04:07:52.091Z,95876.53
2023-02-14T04:10:19.615Z,95883.69
2023-02-14T04:12:46.951Z,95888.41
2023-02-14T04:15:14.334Z,95879.78
2023-02-14T04:17:59.941Z,95883.06
2023-02-14T04:20:27.285Z,95881.88
2023-02-14T04:22:54.545Z,95885.22
2023-02-14T04:25:22.145Z,95881.88
2023-02-14T04:27:49.101Z,95875.00
2023-02-14T04:30:18.103Z,95874.91
2023-02-14T04:32:45.503Z,95864.22
2023-02-14T04:35:12.211Z,95871.91
2023-02-14T04:37:39.491Z,95869.53
2023-02-14T04:40:07.107Z,95873.97
2023-02-14T04:42:34.070Z,95876.34
2023-02-14T04:45:03.138Z,95874.38
2023-02-14T04:47:30.826Z,95869.97
2023-02-14T04:49:57.666Z,95870.97
2023-02-14T04:52:24.524Z,95869.34
2023-02-14T04:54:51.243Z,95868.34
2023-02-14T04:57:17.959Z,95868.91
2023-02-14T04:59:45.157Z,95871.28
2023-02-14T05:02:11.923Z,95876.69
2023-02-14T05:04:38.587Z,95870.41
2023-02-14T05:07:05.346Z,95870.06
2023-02-14T05:09:32.427Z,95856.53
2023-02-14T05:11:59.022Z,95857.09
2023-02-14T05:14:25.602Z,95864.72
2023-02-14T05:16:52.318Z,95861.06
2023-02-14T05:19:18.934Z,95870.31
2023-02-14T05:21:45.573Z,95870.31
2023-02-14T05:24:12.179Z,95870.94
2023-02-14T05:26:38.988Z,95876.13
2023-02-14T05:29:05.554Z,95868.31
2023-02-14T05:31:32.295Z,95866.34
2023-02-14T05:33:59.027Z,95863.34
2023-02-14T05:36:25.808Z,95866.78
2023-02-14T05:38:52.652Z,95868.84
2023-02-14T05:41:19.328Z,95871.94
2023-02-14T05:43:45.954Z,95864.56
2023-02-14T05:46:12.687Z,95878.38
2023-02-14T05:48:39.505Z,95878.22
2023-02-14T05:51:08.189Z,95868.09
2023-02-14T05:53:34.908Z,95870.88
2023-02-14T05:56:01.807Z,95874.91
2023-02-14T05:58:28.500Z,95876.31
2023-02-14T06:00:57.771Z,95879.41
2023-02-14T06:03:25.042Z,95889.91
2023-02-14T06:05:52.362Z,95880.59
2023-02-14T06:08:19.124Z,95885.47
2023-02-14T06:10:46.458Z,95884.28
2023-02-14T06:13:13.261Z,95885.72
2023-02-14T06:15:39.911Z,95891.84
2023-02-14T06:18:06.993Z,95902.88
2023-02-14T06:20:33.873Z,95891.97
2023-02-14T06:23:00.601Z,95897.00
2023-02-14T06:25:27.676Z,95898.06
2023-02-14T06:27:58.623Z,95896.25
2023-02-14T06:30:26.182Z,95896.63
2023-02-14T06:32:53.044Z,95892.53
2023-02-14T06:35:19.909Z,95896.44
2023-02-14T06:37:46.816Z,95898.72
2023-02-14T06:40:13.817Z,95900.22
2023-02-14T06:42:40.775Z,95896.44
2023-02-14T06:45:08.007Z,95895.94
2023-02-14T06:47:35.300Z,95885.97
2023-02-14T06:50:04.356Z,95889.97
2023-02-14T06:52:34.443Z,95887.56
2023-02-14T06:55:01.219Z,95898.59
2023-02-14T06:57:28.212Z,95900.50
2023-02-14T06:59:54.904Z,95899.16
2023-02-14T07:02:24.764Z,95905.34
2023-02-14T07:04:51.801Z,95894.03
2023-02-14T07:07:18.569Z,95901.69
2023-02-14T07:09:45.322Z,95900.00
2023-02-14T07:12:12.107Z,95896.75
2023-02-14T07:14:38.901Z,95889.69
2023-02-14T07:17:05.736Z,95887.97
2023-02-14T07:19:32.422Z,95890.03
2023-02-14T07:21:59.181Z,95889.13
2023-02-14T07:24:25.873Z,95890.94
2023-02-14T07:26:52.642Z,95893.56
2023-02-14T07:29:19.430Z,95890.66
2023-02-14T07:31:46.298Z,95886.50
2023-02-14T07:34:13.205Z,95893.66
2023-02-14T07:36:39.988Z,95888.56
2023-02-14T07:39:06.773Z,95890.13
2023-02-14T07:41:33.580Z,95887.78
2023-02-14T07:44:00.385Z,95889.84
2023-02-14T07:46:27.237Z,95879.97
2023-02-14T07:48:54.071Z,95892.53
2023-02-14T07:51:20.821Z,95893.13
2023-02-14T07:53:47.583Z,95887.00
2023-02-14T07:56:14.400Z,95875.63
2023-02-14T07:58:41.199Z,95876.50
2023-02-14T08:01:08.015Z,95876.25
2023-02-14T08:03:34.879Z,95872.28
2023-02-14T08:06:01.651Z,95877.03
2023-02-14T08:08:30.992Z,95870.31
2023-02-14T08:10:58.428Z,95872.09
2023-02-14T08:13:25.492Z,95864.69
2023-02-14T08:16:12.792Z,95870.66
2023-02-14T08:18:41.605Z,95871.25
2023-02-14T08:21:10.773Z,95873.44
2023-02-14T08:23:38.566Z,95859.25
2023-02-14T08:26:05.742Z,95859.47
2023-02-14T08:28:33.390Z,95863.16
2023-02-14T08:31:00.669Z,95859.72
2023-02-14T08:33:27.738Z,95849.38
2023-02-14T08:35:54.474Z,95849.22
2023-02-14T08:38:21.325Z,95829.13
2023-02-14T08:40:48.109Z,95834.34
2023-02-14T08:43:15.067Z,95833.00
2023-02-14T08:45:42.159Z,95836.34
2023-02-14T08:48:10.637Z,95829.84
2023-02-14T08:50:40.462Z,95831.28
2023-02-14T08:53:09.692Z,95830.16
2023-02-14T08:55:36.505Z,95841.06
2023-02-14T08:58:04.205Z,95839.81
2023-02-14T09:00:31.825Z,95836.72
2023-02-14T09:02:58.796Z,95824.84
2023-02-14T09:05:26.594Z,95809.69
2023-02-14T09:07:56.011Z,95811.56
2023-02-14T09:10:23.159Z,95820.31
2023-02-14T09:12:50.736Z,95820.63
2023-02-14T09:15:17.523Z,95818.22
2023-02-14T09:17:44.339Z,95815.06
2023-02-14T09:20:13.588Z,95831.22
2023-02-14T09:22:40.547Z,95815.25
2023-02-14T09:25:07.487Z,95813.97
2023-02-14T09:27:34.312Z,95810.88
2023-02-14T09:30:01.101Z,95812.44
2023-02-14T09:32:29.432Z,95808.63
2023-02-14T09:34:56.315Z,95806.00
2023-02-14T09:37:41.685Z,95802.06
2023-02-14T09:40:09.207Z,95811.25
2023-02-14T09:42:38.935Z,95815.59
2023-02-14T09:45:17.837Z,95818.59
2023-02-14T09:48:15.209Z,95824.63
2023-02-14T09:51:04.152Z,95816.22
2023-02-14T09:53:37.104Z,95825.19
2023-02-14T09:56:27.519Z,95822.34
2023-02-14T09:59:06.918Z,95807.75
2023-02-14T10:01:38.634Z,95817.84
2023-02-14T10:04:27.583Z,95826.16
2023-02-14T10:06:58.652Z,95822.16
2023-02-14T10:09:25.390Z,95825.25
2023-02-14T10:11:53.057Z,95819.31
2023-02-14T10:14:23.927Z,95820.69
2023-02-14T10:17:02.094Z,95822.75
2023-02-14T10:19:33.075Z,95824.94
2023-02-14T10:22:05.592Z,95808.34
2023-02-14T10:25:02.630Z,95810.84
2023-02-14T10:27:39.759Z,95800.66
2023-02-14T10:30:21.403Z,95805.28
2023-02-14T10:33:11.596Z,95805.69
2023-02-14T10:35:52.027Z,95789.91
2023-02-14T10:38:40.964Z,95790.81
2023-02-14T10:41:34.160Z,95785.66
2023-02-14T10:44:05.011Z,95781.22
2023-02-14T10:46:34.858Z,95769.50
2023-02-14T10:49:44.224Z,95762.88
2023-02-14T10:52:35.208Z,95757.91
2023-02-14T10:55:20.272Z,95767.09
2023-02-14T10:57:57.188Z,95758.28
2023-02-14T11:00:27.267Z,95754.81
2023-02-14T11:02:57.664Z,95756.16
2023-02-14T11:05:34.755Z,95749.56
2023-02-14T11:08:02.084Z,95744.78
2023-02-14T11:10:32.451Z,95736.22
2023-02-14T11:12:59.149Z,95730.22
2023-02-14T11:15:32.998Z,95729.19
2023-02-14T11:18:18.737Z,95726.34
2023-02-14T11:20:59.904Z,95726.41
2023-02-14T11:23:26.699Z,95712.22
2023-02-14T11:25:55.764Z,95712.00
2023-02-14T11:28:23.026Z,95708.63
2023-02-14T11:30:50.998Z,95710.06
2023-02-14T11:33:34.220Z,95702.50
2023-02-14T11:36:03.210Z,95705.19
2023-02-14T11:38:34.165Z,95698.66
2023-02-14T11:41:01.207Z,95698.78
2023-02-14T11:43:39.414Z,95702.88
2023-02-14T11:46:08.316Z,95704.63
2023-02-14T11:48:38.856Z,95695.88
2023-02-14T11:51:10.505Z,95697.28
2023-02-14T11:54:01.399Z,95689.81
2023-02-14T11:56:45.187Z,95697.06
2023-02-14T11:59:12.807Z,95680.47
2023-02-14T12:01:39.591Z,95675.94
2023-02-14T12:04:16.401Z,95672.72
2023-02-14T12:06:44.577Z,95663.63
2023-02-14T12:09:31.735Z,95655.47
2023-02-14T12:11:59.603Z,95657.16
2023-02-14T12:14:34.070Z,95653.59
2023-02-14T12:17:21.391Z,95648.53
2023-02-14T12:20:17.260Z,95647.81
2023-02-14T12:22:50.570Z,95647.25
2023-02-14T12:25:22.899Z,95634.75
2023-02-14T12:27:49.612Z,95632.38
2023-02-14T12:30:19.459Z,95633.16
2023-02-14T12:32:51.532Z,95624.66
2023-02-14T12:35:27.854Z,95613.91
2023-02-14T12:38:07.090Z,95619.56
2023-02-14T12:40:49.674Z,95611.94
2023-02-14T12:43:34.508Z,95612.19
2023-02-14T12:46:14.914Z,95603.00
2023-02-14T12:48:56.767Z,95605.00
2023-02-14T12:51:57.399Z,95600.25
2023-02-14T12:54:30.220Z,95601.16
2023-02-14T12:57:18.879Z,95593.75
2023-02-14T13:00:05.399Z,95595.72
2023-02-14T13:02:35.136Z,95589.97
2023-02-14T13:05:24.248Z,95585.28
2023-02-14T13:08:20.695Z,95580.69
2023-02-14T13:10:56.339Z,95581.66
2023-02-14T13:13:27.608Z,95582.50
2023-02-14T13:16:17.528Z,95572.13
2023-02-14T13:19:04.137Z,95568.44
2023-02-14T13:21:34.181Z,95565.84
2023-02-14T13:24:16.630Z,95563.03
2023-02-14T13:26:45.354Z,95565.19
2023-02-14T13:29:24.124Z,95562.22
2023-02-14T13:31:52.400Z,95565.09
2023-02-14T13:34:26.848Z,95560.06
2023-02-14T13:36:55.479Z,95556.59
2023-02-14T13:39:44.175Z,95565.75
2023-02-14T13:42:11.670Z,95556.78
2023-02-14T13:44:47.882Z,95555.50
2023-02-14T13:47:22.840Z,95545.66
2023-02-14T13:50:01.128Z,95546.13
2023-02-14T13:52:45.014Z,95538.28
2023-02-14T13:55:27.295Z,95543.66
2023-02-14T13:58:24.312Z,95544.44
2023-02-14T14:00:52.882Z,95553.19
2023-02-14T14:03:28.941Z,95539.09
2023-02-14T14:05:58.878Z,95542.19
2023-02-14T14:08:28.759Z,95534.72
2023-02-14T14:10:59.684Z,95528.09
2023-02-14T14:13:41.734Z,95535.03
2023-02-14T14:16:21.626Z,95532.78
2023-02-14T14:18:49.472Z,95529.16
2023-02-14T14:21:39.230Z,95524.84
2023-02-14T14:24:17.880Z,95532.34
2023-02-14T14:27:00.738Z,95534.16
2023-02-14T14:29:34.823Z,95528.97
2023-02-14T14:32:15.298Z,95530.44
2023-02-14T14:34:50.503Z,95532.72
2023-02-14T14:37:20.203Z,95536.06
2023-02-14T14:39:52.070Z,95530.28
2023-02-14T14:42:19.735Z,95538.84
2023-02-14T14:45:05.716Z,95535.13
2023-02-14T14:47:41.062Z,95527.91
2023-02-14T14:50:13.749Z,95525.09
2023-02-14T14:52:43.959Z,95529.44
2023-02-14T14:55:28.030Z,95533.66
2023-02-14T14:58:00.584Z,95531.66
2023-02-14T15:00:29.760Z,95523.69
2023-02-14T15:02:58.909Z,95531.81
2023-02-14T15:05:30.355Z,95531.66
2023-02-14T15:07:57.971Z,95527.31
2023-02-14T15:10:27.967Z,95528.91
2023-02-14T15:13:16.564Z,95521.31
2023-02-14T15:15:48.814Z,95520.47
2023-02-14T15:18:15.677Z,95520.38
2023-02-14T15:20:42.761Z,95510.31
2023-02-14T15:23:21.018Z,95521.44
2023-02-14T15:25:49.335Z,95514.22
2023-02-14T15:28:30.777Z,95519.03
2023-02-14T15:31:04.567Z,95514.78
2023-02-14T15:33:32.654Z,95517.09
2023-02-14T15:36:03.786Z,95530.19
2023-02-14T15:38:31.065Z,95526.47
2023-02-14T15:40:58.953Z,95523.72
2023-02-14T15:43:32.136Z,95527.09
2023-02-14T15:46:27.379Z,95529.59
2023-02-14T15:48:56.197Z,95530.25
2023-02-14T15:51:27.122Z,95528.25
2023-02-14T15:53:58.929Z,95527.00
2023-02-14T15:56:28.174Z,95533.44
2023-02-14T15:59:07.787Z,95539.44
2023-02-14T16:01:36.085Z,95536.38
2023-02-14T16:04:04.688Z,95529.16
2023-02-14T16:06:35.942Z,95551.53
2023-02-14T16:09:04.277Z,95543.03
2023-02-14T16:11:36.267Z,95550.66
2023-02-14T16:14:30.462Z,95550.53
2023-02-14T16:17:03.126Z,95555.94
2023-02-14T16:19:38.773Z,95561.56
2023-02-14T16:22:07.207Z,95555.88
2023-02-14T16:24:34.426Z,95564.41
2023-02-14T16:27:06.871Z,95551.88
2023-02-14T16:29:35.699Z,95563.25
2023-02-14T16:32:17.053Z,95558.25
2023-02-14T16:34:45.625Z,95566.38
2023-02-14T16:37:23.418Z,95568.94
2023-02-14T16:39:51.712Z,95569.91
2023-02-14T16:42:18.961Z,95569.91
2023-02-14T16:44:46.624Z,95581.78
2023-02-14T16:47:14.927Z,95578.28
2023-02-14T16:49:42.150Z,95579.75
2023-02-14T16:52:18.004Z,95575.97
2023-02-14T16:54:44.902Z,95584.44
2023-02-14T16:57:28.234Z,95580.94
2023-02-14T16:59:56.592Z,95586.63
2023-02-14T17:02:26.391Z,95589.72
2023-02-14T17:04:53.181Z,95579.19
2023-02-14T17:07:20.315Z,95592.97
2023-02-14T17:09:52.124Z,95591.59
2023-02-14T17:12:22.756Z,95597.53
2023-02-14T17:14:52.118Z,95588.50
2023-02-14T17:17:19.085Z,95594.84
2023-02-14T17:19:45.915Z,95598.75
2023-02-14T17:22:13.746Z,95598.59
2023-02-14T17:24:41.270Z,95601.56
2023-02-14T17:27:08.798Z,95602.31
2023-02-14T17:29:35.903Z,95607.66
2023-02-14T17:32:03.197Z,95591.44
2023-02-14T17:34:33.852Z,95608.75
2023-02-14T17:37:00.616Z,95615.28
2023-02-14T17:39:27.690Z,95609.88
2023-02-14T17:41:56.693Z,95606.50
2023-02-14T17:44:23.477Z,95607.44
2023-02-14T17:46:50.409Z,95602.72
2023-02-14T17:49:17.181Z,95609.47
2023-02-14T17:51:43.858Z,95618.31
2023-02-14T17:54:10.603Z,95614.53
2023-02-14T17:56:37.336Z,95614.03
2023-02-14T17:59:04.037Z,95610.50
2023-02-14T18:01:34.654Z,95619.16
2023-02-14T18:04:01.417Z,95623.34
2023-02-14T18:06:28.280Z,95620.59
2023-02-14T18:08:58.047Z,95628.59
2023-02-14T18:11:27.520Z,95622.66
2023-02-14T18:13:55.409Z,95622.59
2023-02-14T18:16:22.492Z,95621.94
2023-02-14T18:18:49.329Z,95630.25
2023-02-14T18:21:20.363Z,95634.22
2023-02-14T18:23:47.293Z,95633.47
2023-02-14T18:26:15.673Z,95629.91
2023-02-14T18:28:42.427Z,95618.56
2023-02-14T18:31:11.326Z,95622.31
2023-02-14T18:33:38.364Z,95622.81
2023-02-14T18:36:07.296Z,95628.75
2023-02-14T18:38:34.926Z,95618.47
2023-02-14T18:41:09.139Z,95619.28
2023-02-14T18:43:36.587Z,95621.09
2023-02-14T18:46:05.401Z,95617.03
2023-02-14T18:48:32.565Z,95630.03
2023-02-14T18:51:13.889Z,95618.66
2023-02-14T18:53:41.423Z,95629.34
2023-02-14T18:56:16.502Z,95611.66
2023-02-14T18:58:47.252Z,95626.09
2023-02-14T19:01:16.661Z,95625.75
2023-02-14T19:03:43.568Z,95624.97
2023-02-14T19:06:11.727Z,95625.91
2023-02-14T19:08:39.842Z,95625.19
2023-02-14T19:11:11.771Z,95624.16
2023-02-14T19:13:38.545Z,95618.94
2023-02-14T19:16:12.627Z,95618.47
2023-02-14T19:18:39.899Z,95607.22
2023-02-14T19:21:18.399Z,95607.59
2023-02-14T19:23:45.141Z,95618.97
2023-02-14T19:26:17.463Z,95609.91
2023-02-14T19:28:44.996Z,95611.41
2023-02-14T19:31:12.096Z,95616.78
2023-02-14T19:33:48.086Z,95610.25
2023-02-14T19:36:18.480Z,95602.81
2023-02-14T19:38:49.156Z,95611.56
2023-02-14T19:41:25.088Z,95607.63
2023-02-14T19:43:52.665Z,95609.56
2023-02-14T19:46:20.361Z,95611.91
2023-02-14T19:48:47.776Z,95612.47
2023-02-14T19:51:29.484Z,95603.56
2023-02-14T19:53:57.430Z,95610.88
2023-02-14T19:56:26.549Z,95611.34
2023-02-14T19:58:53.577Z,95602.28
2023-02-14T20:01:29.570Z,95614.44
2023-02-14T20:03:56.445Z,95609.94
2023-02-14T20:06:24.554Z,95612.94
2023-02-14T20:08:51.703Z,95613.53
2023-02-14T20:11:40.537Z,95609.22
2023-02-14T20:14:08.450Z,95610.84
2023-02-14T20:16:36.766Z,95604.59
2023-02-14T20:19:06.440Z,95611.78
2023-02-14T20:21:33.907Z,95603.78
2023-02-14T20:24:02.576Z,95614.22
2023-02-14T20:26:30.670Z,95612.03
2023-02-14T20:29:03.898Z,95613.31
2023-02-14T20:31:32.853Z,95622.34
2023-02-14T20:33:59.851Z,95617.84
2023-02-14T20:36:28.224Z,95619.56
2023-02-14T20:39:00.537Z,95612.50
2023-02-14T20:41:27.983Z,95613.38
2023-02-14T20:43:55.557Z,95612.22
2023-02-14T20:46:22.937Z,95605.06
2023-02-14T20:48:51.069Z,95612.81
2023-02-14T20:51:19.550Z,95614.78
2023-02-14T20:53:46.422Z,95618.81
2023-02-14T20:56:13.933Z,95613.22
2023-02-14T20:58:41.030Z,95614.78
2023-02-14T21:01:15.975Z,95609.56
2023-02-14T21:03:46.673Z,95605.88
2023-02-14T21:06:14.972Z,95599.31
2023-02-14T21:08:42.757Z,95599.16
2023-02-14T21:11:11.625Z,95604.94
2023-02-14T21:13:38.812Z,95600.78
2023-02-14T21:16:08.025Z,95602.91
2023-02-14T21:18:37.697Z,95604.38
2023-02-14T21:21:11.587Z,95595.72
2023-02-14T21:23:38.234Z,95599.44
2023-02-14T21:26:06.096Z,95601.38
2023-02-14T21:28:32.954Z,95596.59
2023-02-14T21:31:08.671Z,95603.34
2023-02-14T21:33:36.148Z,95599.56
2023-02-14T21:36:05.748Z,95590.88
2023-02-14T21:38:32.408Z,95593.97
2023-02-14T21:41:10.472Z,95593.22
2023-02-14T21:43:39.346Z,95583.78
2023-02-14T21:46:07.819Z,95593.31
2023-02-14T21:48:53.163Z,95594.91
2023-02-14T21:51:21.343Z,95587.16
2023-02-14T21:53:48.503Z,95587.25
2023-02-14T21:56:19.649Z,95585.91
2023-02-14T21:58:51.819Z,95586.59
2023-02-14T22:01:24.352Z,95588.44
2023-02-14T22:03:53.493Z,95588.88
2023-02-14T22:06:20.253Z,95585.53
2023-02-14T22:08:47.076Z,95593.53
2023-02-14T22:11:15.419Z,95590.06
2023-02-14T22:13:42.644Z,95587.50
2023-02-14T22:16:14.658Z,95588.16
2023-02-14T22:18:41.813Z,95587.25
2023-02-14T22:21:10.962Z,95588.28
2023-02-14T22:23:38.256Z,95587.84
2023-02-14T22:26:25.759Z,95588.66
2023-02-14T22:28:55.911Z,95586.44
2023-02-14T22:31:23.260Z,95588.31
2023-02-14T22:33:50.278Z,95584.84
2023-02-14T22:36:16.906Z,95592.78
2023-02-14T22:38:43.918Z,95593.84
2023-02-14T22:41:13.088Z,95588.88
2023-02-14T22:43:40.520Z,95597.44
2023-02-14T22:46:13.434Z,95588.38
2023-02-14T22:48:40.724Z,95587.97
2023-02-14T22:51:23.694Z,95591.19
2023-02-14T22:53:51.974Z,95587.47
2023-02-14T22:56:20.709Z,95590.16
2023-02-14T22:58:47.611Z,95593.22
2023-02-14T23:01:19.370Z,95586.63
2023-02-14T23:03:48.122Z,95587.94
2023-02-14T23:06:15.703Z,95593.47
2023-02-14T23:08:43.878Z,95588.06
2023-02-14T23:11:15.169Z,95591.22
2023-02-14T23:14:02.093Z,95584.72
2023-02-14T23:16:47.921Z,95578.81
2023-02-14T23:19:35.539Z,95581.63
2023-02-14T23:22:23.523Z,95585.06
2023-02-14T23:24:51.736Z,95585.88
2023-02-14T23:27:20.677Z,95582.22
2023-02-14T23:29:47.283Z,95581.94
2023-02-14T23:32:14.169Z,95567.22
2023-02-14T23:34:41.806Z,95574.19
2023-02-14T23:37:09.246Z,95579.63
2023-02-14T23:39:36.857Z,95564.78
2023-02-14T23:42:12.200Z,95569.75
2023-02-14T23:44:38.790Z,95562.94
2023-02-14T23:47:08.096Z,95557.31
2023-02-14T23:49:36.436Z,95571.75
2023-02-14T23:52:04.088Z,95561.81
2023-02-14T23:54:30.692Z,95563.44
2023-02-14T23:56:59.892Z,95557.88
2023-02-14T23:59:26.584Z,95553.72
